createdAt,value
2022-12-04T00:00:27.311Z,101403.25
2022-12-04T00:03:30.614Z,101400.81
2022-12-04T00:06:36.607Z,101395.66
2022-12-04T00:09:40.094Z,101390.25
2022-12-04T00:12:42.893Z,101383.97
2022-12-04T00:15:45.706Z,101386.41
2022-12-04T00:18:48.969Z,101386.06
2022-12-04T00:21:52.673Z,101396.34
2022-12-04T00:24:55.179Z,101393.00
2022-12-04T00:27:58.436Z,101391.19
2022-12-04T00:31:04.600Z,101400.84
2022-12-04T00:34:08.521Z,101403.16
2022-12-04T00:37:11.940Z,101405.50
2022-12-04T00:40:15.037Z,101398.81
2022-12-04T00:43:17.871Z,101391.06
2022-12-04T00:46:22.346Z,101389.28
2022-12-04T00:49:24.926Z,101401.12
2022-12-04T00:52:28.436Z,101405.63
2022-12-04T00:55:31.724Z,101402.16
2022-12-04T00:58:36.106Z,101401.62
2022-12-04T01:01:40.727Z,101404.31
2022-12-04T01:04:44.522Z,101411.50
2022-12-04T01:07:47.212Z,101415.09
2022-12-04T01:10:51.047Z,101405.81
2022-12-04T01:13:54.015Z,101404.16
2022-12-04T01:16:57.632Z,101400.69
2022-12-04T01:20:01.792Z,101403.50
2022-12-04T01:23:05.111Z,101392.28
2022-12-04T01:26:07.993Z,101396.66
2022-12-04T01:29:15.562Z,101396.78
2022-12-04T01:32:18.268Z,101395.91
2022-12-04T01:35:21.496Z,101394.88
2022-12-04T01:38:25.303Z,101403.00
2022-12-04T01:41:32.016Z,101405.22
2022-12-04T01:44:34.835Z,101405.22
2022-12-04T01:47:37.794Z,101399.41
2022-12-04T01:50:42.355Z,101390.00
2022-12-04T01:53:56.173Z,101385.63
2022-12-04T01:57:21.395Z,101382.94
2022-12-04T02:00:24.933Z,101375.87
2022-12-04T02:03:30.249Z,101363.66
2022-12-04T02:06:33.591Z,101370.25
2022-12-04T02:09:39.476Z,101363.16
2022-12-04T02:12:51.345Z,101372.03
2022-12-04T02:15:58.973Z,101374.59
2022-12-04T02:19:35.996Z,101380.53
2022-12-04T02:22:53.963Z,101378.63
2022-12-04T02:26:02.447Z,101373.34
2022-12-04T02:29:17.559Z,101382.75
2022-12-04T02:32:31.133Z,101379.94
2022-12-04T02:35:45.946Z,101384.16
2022-12-04T02:39:05.696Z,101388.06
2022-12-04T02:42:12.970Z,101382.50
2022-12-04T02:45:22.291Z,101373.63
2022-12-04T02:48:28.495Z,101376.84
2022-12-04T02:51:36.578Z,101370.44
2022-12-04T02:54:45.966Z,101371.09
2022-12-04T02:57:53.836Z,101364.78
2022-12-04T03:00:59.704Z,101360.56
2022-12-04T03:04:27.364Z,101361.31
2022-12-04T03:07:58.771Z,101363.78
2022-12-04T03:11:02.222Z,101358.38
2022-12-04T03:14:20.993Z,101364.81
2022-12-04T03:17:31.404Z,101365.34
2022-12-04T03:20:39.180Z,101367.81
2022-12-04T03:23:48.176Z,101374.62
2022-12-04T03:27:03.823Z,101360.72
2022-12-04T03:30:12.548Z,101348.53
2022-12-04T03:33:19.714Z,101356.63
2022-12-04T03:36:28.341Z,101356.63
2022-12-04T03:39:38.473Z,101363.31
2022-12-04T03:43:16.510Z,101372.31
2022-12-04T03:46:41.165Z,101372.56
2022-12-04T03:50:08.055Z,101373.31
2022-12-04T03:53:49.656Z,101380.00
2022-12-04T03:56:57.241Z,101376.78
2022-12-04T04:00:13.062Z,101361.22
2022-12-04T04:03:21.344Z,101364.94
2022-12-04T04:06:40.389Z,101365.59
2022-12-04T04:09:47.714Z,101367.81
2022-12-04T04:13:21.175Z,101362.41
2022-12-04T04:16:47.189Z,101368.44
2022-12-04T04:20:15.408Z,101358.03
2022-12-04T04:23:38.688Z,101372.69
2022-12-04T04:26:50.395Z,101375.78
2022-12-04T04:29:54.075Z,101377.59
2022-12-04T04:33:16.822Z,101379.00
2022-12-04T04:36:33.165Z,101377.09
2022-12-04T04:39:38.601Z,101376.84
2022-12-04T04:42:54.550Z,101373.75
2022-12-04T04:46:04.652Z,101365.25
2022-12-04T04:49:12.345Z,101376.56
2022-12-04T04:52:18.589Z,101380.16
2022-12-04T04:55:22.609Z,101382.72
2022-12-04T04:58:25.777Z,101386.06
2022-12-04T05:01:29.042Z,101389.41
2022-12-04T05:04:31.819Z,101384.94
2022-12-04T05:07:35.492Z,101372.06
2022-12-04T05:10:38.646Z,101373.75
2022-12-04T05:13:44.051Z,101374.88
2022-12-04T05:16:47.761Z,101372.56
2022-12-04T05:19:54.233Z,101378.63
2022-12-04T05:22:57.388Z,101368.97
2022-12-04T05:26:02.177Z,101371.81
2022-12-04T05:29:04.848Z,101377.72
2022-12-04T05:32:08.331Z,101371.94
2022-12-04T05:35:11.906Z,101374.88
2022-12-04T05:38:14.927Z,101369.50
2022-12-04T05:41:18.263Z,101373.63
2022-12-04T05:44:21.518Z,101368.22
2022-12-04T05:47:25.543Z,101364.75
2022-12-04T05:50:32.505Z,101365.41
2022-12-04T05:53:45.167Z,101366.94
2022-12-04T05:56:48.568Z,101367.59
2022-12-04T05:59:51.579Z,101365.53
2022-12-04T06:02:54.582Z,101375.03
2022-12-04T06:05:58.376Z,101363.44
2022-12-04T06:09:01.713Z,101363.47
2022-12-04T06:12:07.514Z,101361.16
2022-12-04T06:15:11.469Z,101363.72
2022-12-04T06:18:14.162Z,101384.16
2022-12-04T06:21:19.369Z,101384.03
2022-12-04T06:24:28.305Z,101383.88
2022-12-04T06:27:35.812Z,101397.38
2022-12-04T06:30:42.457Z,101401.62
2022-12-04T06:33:45.865Z,101404.44
2022-12-04T06:36:49.372Z,101395.19
2022-12-04T06:39:52.386Z,101392.13
2022-12-04T06:42:56.305Z,101387.62
2022-12-04T06:46:23.414Z,101385.94
2022-12-04T06:49:34.409Z,101385.06
2022-12-04T06:52:40.896Z,101393.03
2022-12-04T06:55:55.119Z,101379.41
2022-12-04T06:59:04.216Z,101382.47
2022-12-04T07:02:09.291Z,101377.59
2022-12-04T07:05:19.210Z,101384.16
2022-12-04T07:08:22.864Z,101371.44
2022-12-04T07:11:31.973Z,101378.63
2022-12-04T07:14:46.159Z,101383.78
2022-12-04T07:18:01.634Z,101381.59
2022-12-04T07:21:07.441Z,101381.31
2022-12-04T07:24:17.642Z,101385.19
2022-12-04T07:27:24.396Z,101388.63
2022-12-04T07:30:41.522Z,101390.81
2022-12-04T07:33:51.233Z,101389.34
2022-12-04T07:36:57.249Z,101384.34
2022-12-04T07:40:04.244Z,101385.59
2022-12-04T07:43:08.244Z,101392.66
2022-12-04T07:46:16.476Z,101385.44
2022-12-04T07:49:23.173Z,101383.56
2022-12-04T07:52:29.811Z,101387.13
2022-12-04T07:55:38.524Z,101386.56
2022-12-04T07:58:44.409Z,101379.28
2022-12-04T08:01:47.326Z,101383.16
2022-12-04T08:04:51.685Z,101381.84
2022-12-04T08:07:55.848Z,101374.81
2022-12-04T08:11:01.495Z,101377.56
2022-12-04T08:14:09.106Z,101379.84
2022-12-04T08:17:15.367Z,101383.44
2022-12-04T08:20:26.732Z,101371.31
2022-12-04T08:23:36.229Z,101371.03
2022-12-04T08:26:46.144Z,101371.28
2022-12-04T08:29:56.832Z,101378.94
2022-12-04T08:33:13.732Z,101372.87
2022-12-04T08:36:26.447Z,101373.31
2022-12-04T08:39:36.334Z,101385.22
2022-12-04T08:42:49.655Z,101388.81
2022-12-04T08:46:04.721Z,101391.28
2022-12-04T08:49:22.402Z,101391.28
2022-12-04T08:52:28.606Z,101390.28
2022-12-04T08:55:35.088Z,101394.44
2022-12-04T08:58:42.792Z,101400.25
2022-12-04T09:01:51.453Z,101393.75
2022-12-04T09:05:04.259Z,101388.69
2022-12-04T09:08:11.313Z,101390.41
2022-12-04T09:11:23.348Z,101381.63
2022-12-04T09:14:36.388Z,101375.66
2022-12-04T09:17:47.792Z,101378.25
2022-12-04T09:21:02.315Z,101367.00
2022-12-04T09:24:07.092Z,101367.75
2022-12-04T09:27:18.141Z,101369.84
2022-12-04T09:30:36.284Z,101369.28
2022-12-04T09:33:42.840Z,101363.22
2022-12-04T09:36:48.533Z,101355.56
2022-12-04T09:39:56.456Z,101350.97
2022-12-04T09:43:07.292Z,101347.59
2022-12-04T09:46:19.259Z,101349.84
2022-12-04T09:49:39.569Z,101342.13
2022-12-04T09:53:04.619Z,101328.31
2022-12-04T09:56:20.761Z,101308.13
2022-12-04T09:59:32.342Z,101315.19
2022-12-04T10:02:43.514Z,101326.22
2022-12-04T10:06:19.376Z,101308.31
2022-12-04T10:09:49.229Z,101315.19
2022-12-04T10:13:49.238Z,101312.28
2022-12-04T10:17:12.846Z,101298.09
2022-12-04T10:20:49.139Z,101304.28
2022-12-04T10:24:23.601Z,101304.97
2022-12-04T10:27:51.281Z,101291.81
2022-12-04T10:31:17.270Z,101285.03
2022-12-04T10:34:28.703Z,101286.81
2022-12-04T10:37:46.442Z,101278.47
2022-12-04T10:41:14.574Z,101267.22
2022-12-04T10:44:27.706Z,101263.31
2022-12-04T10:47:44.573Z,101251.03
2022-12-04T10:51:00.389Z,101255.03
2022-12-04T10:54:32.877Z,101258.94
2022-12-04T10:57:42.195Z,101244.03
2022-12-04T11:00:58.298Z,101239.66
2022-12-04T11:04:19.570Z,101238.97
2022-12-04T11:07:29.296Z,101241.97
2022-12-04T11:10:40.738Z,101226.19
2022-12-04T11:13:48.598Z,101222.16
2022-12-04T11:17:05.651Z,101211.88
2022-12-04T11:20:18.341Z,101222.16
2022-12-04T11:23:22.036Z,101204.25
2022-12-04T11:26:39.181Z,101202.63
2022-12-04T11:29:48.243Z,101203.25
2022-12-04T11:32:56.324Z,101209.34
2022-12-04T11:36:06.399Z,101209.06
2022-12-04T11:39:13.478Z,101196.37
2022-12-04T11:42:23.339Z,101189.56
2022-12-04T11:45:29.562Z,101181.88
2022-12-04T11:48:45.201Z,101193.50
2022-12-04T11:52:18.821Z,101192.87
2022-12-04T11:55:38.210Z,101180.81
2022-12-04T11:59:04.380Z,101170.53
2022-12-04T12:02:39.948Z,101174.47
2022-12-04T12:05:49.466Z,101171.59
2022-12-04T12:09:20.292Z,101179.53
2022-12-04T12:12:57.341Z,101182.84
2022-12-04T12:16:17.242Z,101186.63
2022-12-04T12:19:55.458Z,101184.91
2022-12-04T12:23:10.213Z,101182.03
2022-12-04T12:26:17.383Z,101191.09
2022-12-04T12:29:49.111Z,101193.78
2022-12-04T12:33:12.179Z,101201.56
2022-12-04T12:36:21.757Z,101177.56
2022-12-04T12:39:39.283Z,101164.12
2022-12-04T12:42:58.690Z,101169.47
2022-12-04T12:46:42.129Z,101168.94
2022-12-04T12:49:59.312Z,101180.56
2022-12-04T12:53:26.202Z,101182.34
2022-12-04T12:56:49.864Z,101176.00
2022-12-04T13:00:02.410Z,101174.28
2022-12-04T13:03:28.242Z,101172.16
2022-12-04T13:06:40.503Z,101172.72
2022-12-04T13:10:17.244Z,101171.47
2022-12-04T13:13:50.102Z,101172.19
2022-12-04T13:17:01.194Z,101177.94
2022-12-04T13:20:32.101Z,101191.34
2022-12-04T13:24:31.287Z,101198.88
2022-12-04T13:28:00.708Z,101196.00
2022-12-04T13:31:29.472Z,101193.16
2022-12-04T13:35:06.201Z,101203.34
2022-12-04T13:38:35.134Z,101190.13
2022-12-04T13:41:46.518Z,101195.22
2022-12-04T13:45:08.969Z,101189.84
2022-12-04T13:48:16.142Z,101188.88
2022-12-04T13:51:44.223Z,101184.31
2022-12-04T13:55:00.086Z,101196.28
2022-12-04T13:58:13.208Z,101203.19
2022-12-04T14:01:30.990Z,101203.09
2022-12-04T14:04:47.230Z,101213.47
2022-12-04T14:08:08.024Z,101214.97
2022-12-04T14:11:16.910Z,101212.19
2022-12-04T14:14:32.278Z,101210.41
2022-12-04T14:17:40.497Z,101198.88
2022-12-04T14:20:45.379Z,101206.47
2022-12-04T14:23:52.338Z,101214.25
2022-12-04T14:27:15.597Z,101208.00
2022-12-04T14:30:22.157Z,101205.22
2022-12-04T14:33:32.812Z,101200.94
2022-12-04T14:41:00.316Z,101202.41
2022-12-04T14:44:41.354Z,101212.78
2022-12-04T14:48:02.701Z,101211.78
2022-12-04T14:51:09.223Z,101204.62
2022-12-04T14:54:29.276Z,101208.03
2022-12-04T14:57:54.881Z,101218.41
2022-12-04T15:01:36.417Z,101216.59
2022-12-04T15:04:49.270Z,101218.22
2022-12-04T15:08:06.385Z,101219.81
2022-12-04T15:11:44.324Z,101221.50
2022-12-04T15:14:52.536Z,101221.50
2022-12-04T15:18:09.732Z,101215.97
2022-12-04T15:21:16.201Z,101223.47
2022-12-04T15:24:26.600Z,101221.47
2022-12-04T15:27:33.080Z,101221.28
2022-12-04T15:30:42.569Z,101221.19
2022-12-04T15:33:50.176Z,101222.72
2022-12-04T15:37:07.304Z,101222.72
2022-12-04T15:40:21.431Z,101221.91
2022-12-04T15:43:43.966Z,101215.53
2022-12-04T15:46:58.391Z,101218.03
2022-12-04T15:50:19.311Z,101217.06
2022-12-04T15:53:32.250Z,101220.16
2022-12-04T15:56:37.185Z,101219.16
2022-12-04T15:59:59.130Z,101218.19
2022-12-04T16:03:36.332Z,101224.78
2022-12-04T16:06:48.726Z,101216.00
2022-12-04T16:10:03.262Z,101222.75
2022-12-04T16:13:30.239Z,101220.16
2022-12-04T16:16:50.109Z,101215.06
2022-12-04T16:20:02.846Z,101220.16
2022-12-04T16:23:08.136Z,101214.88
2022-12-04T16:26:17.266Z,101219.28
2022-12-04T16:29:23.186Z,101219.28
2022-12-04T16:32:34.427Z,101219.94
2022-12-04T16:35:50.115Z,101217.16
2022-12-04T16:38:56.160Z,101217.94
2022-12-04T16:42:25.131Z,101223.13
2022-12-04T16:45:33.528Z,101221.25
2022-12-04T16:48:43.444Z,101216.69
2022-12-04T16:51:52.440Z,101220.06
2022-12-04T16:54:58.494Z,101216.37
2022-12-04T16:58:08.166Z,101221.47
2022-12-04T17:01:26.732Z,101228.44
2022-12-04T17:04:37.205Z,101219.56
2022-12-04T17:07:43.802Z,101220.09
2022-12-04T17:10:50.132Z,101231.34
2022-12-04T17:13:52.913Z,101226.84
2022-12-04T17:17:07.259Z,101229.44
2022-12-04T17:20:28.065Z,101227.56
2022-12-04T17:23:32.652Z,101228.34
2022-12-04T17:26:38.375Z,101228.25
2022-12-04T17:29:50.722Z,101234.44
2022-12-04T17:32:57.196Z,101232.53
2022-12-04T17:36:15.246Z,101230.75
2022-12-04T17:39:21.181Z,101232.34
2022-12-04T17:42:25.334Z,101241.72
2022-12-04T17:45:33.188Z,101238.41
2022-12-04T17:48:38.602Z,101238.41
2022-12-04T17:51:52.074Z,101242.50
2022-12-04T17:55:05.331Z,101240.72
2022-12-04T17:58:13.497Z,101240.50
2022-12-04T18:01:20.559Z,101245.88
2022-12-04T18:04:25.255Z,101251.97
2022-12-04T18:07:33.227Z,101244.91
2022-12-04T18:10:42.956Z,101247.47
2022-12-04T18:13:51.189Z,101243.91
2022-12-04T18:17:06.243Z,101255.94
2022-12-04T18:20:13.764Z,101255.84
2022-12-04T18:23:31.181Z,101256.84
2022-12-04T18:26:45.205Z,101259.31
2022-12-04T18:29:53.623Z,101258.53
2022-12-04T18:33:06.091Z,101253.16
2022-12-04T18:36:28.584Z,101263.50
2022-12-04T18:39:37.644Z,101251.38
2022-12-04T18:42:41.933Z,101252.16
2022-12-04T18:46:04.173Z,101259.94
2022-12-04T18:49:13.160Z,101252.25
2022-12-04T18:52:16.653Z,101249.78
2022-12-04T18:55:24.376Z,101248.88
2022-12-04T18:58:29.610Z,101246.50
2022-12-04T19:01:35.364Z,101261.31
2022-12-04T19:04:48.115Z,101252.06
2022-12-04T19:07:54.224Z,101253.06
2022-12-04T19:11:16.060Z,101257.44
2022-12-04T19:14:37.188Z,101259.22
2022-12-04T19:17:44.162Z,101260.03
2022-12-04T19:20:53.162Z,101259.22
2022-12-04T19:24:00.349Z,101255.75
2022-12-04T19:27:13.471Z,101254.06
2022-12-04T19:30:19.166Z,101250.87
2022-12-04T19:33:34.399Z,101262.00
2022-12-04T19:36:48.149Z,101264.50
2022-12-04T19:40:02.390Z,101275.75
2022-12-04T19:43:06.725Z,101264.41
2022-12-04T19:46:15.885Z,101275.47
2022-12-04T19:49:31.255Z,101273.87
2022-12-04T19:52:40.462Z,101277.94
2022-12-04T19:55:51.315Z,101275.97
2022-12-04T19:58:57.439Z,101272.56
2022-12-04T20:02:00.646Z,101274.06
2022-12-04T20:05:12.162Z,101280.94
2022-12-04T20:08:28.182Z,101271.19
2022-12-04T20:11:36.200Z,101274.56
2022-12-04T20:14:45.602Z,101274.34
2022-12-04T20:17:48.701Z,101276.94
2022-12-04T20:20:57.126Z,101281.13
2022-12-04T20:24:11.482Z,101284.50
2022-12-04T20:27:17.301Z,101287.09
2022-12-04T20:30:26.232Z,101290.47
2022-12-04T20:33:37.185Z,101289.59
2022-12-04T20:36:47.166Z,101301.63
2022-12-04T20:39:53.639Z,101289.38
2022-12-04T20:43:07.055Z,101298.84
2022-12-04T20:46:29.216Z,101298.72
2022-12-04T20:49:51.110Z,101295.25
2022-12-04T20:53:11.222Z,101288.16
2022-12-04T20:56:17.229Z,101288.94
2022-12-04T20:59:26.080Z,101297.50
2022-12-04T21:02:37.082Z,101302.47
2022-12-04T21:05:42.151Z,101298.09
2022-12-04T21:08:56.130Z,101298.28
2022-12-04T21:12:24.366Z,101307.75
2022-12-04T21:15:47.417Z,101299.56
2022-12-04T21:18:52.129Z,101302.16
2022-12-04T21:21:58.430Z,101295.09
2022-12-04T21:25:15.113Z,101288.91
2022-12-04T21:28:18.700Z,101297.38
2022-12-04T21:31:22.271Z,101295.59
2022-12-04T21:34:26.472Z,101302.44
2022-12-04T21:37:31.156Z,101306.72
2022-12-04T21:40:42.096Z,101304.81
2022-12-04T21:43:47.177Z,101301.25
2022-12-04T21:46:51.237Z,101318.84
2022-12-04T21:49:56.676Z,101317.28
2022-12-04T21:53:06.069Z,101314.47
2022-12-04T21:56:12.421Z,101315.97
2022-12-04T21:59:18.095Z,101323.72
2022-12-04T22:02:25.346Z,101316.75
2022-12-04T22:05:32.319Z,101321.63
2022-12-04T22:08:38.343Z,101316.25
2022-12-04T22:11:48.490Z,101314.44
2022-12-04T22:14:53.259Z,101314.22
2022-12-04T22:17:56.786Z,101321.00
2022-12-04T22:21:04.333Z,101321.78
2022-12-04T22:24:10.669Z,101313.81
2022-12-04T22:27:16.153Z,101313.81
2022-12-04T22:30:19.369Z,101309.44
2022-12-04T22:33:23.293Z,101315.50
2022-12-04T22:36:32.043Z,101310.03
2022-12-04T22:39:35.105Z,101308.44
2022-12-04T22:42:39.386Z,101303.06
2022-12-04T22:45:42.652Z,101302.94
2022-12-04T22:48:46.325Z,101299.38
2022-12-04T22:51:49.312Z,101296.78
2022-12-04T22:54:54.130Z,101295.69
2022-12-04T22:57:57.128Z,101293.88
2022-12-04T23:01:00.827Z,101287.50
2022-12-04T23:04:03.831Z,101291.78
2022-12-04T23:07:09.077Z,101294.13
2022-12-04T23:10:13.110Z,101289.88
2022-12-04T23:13:16.024Z,101294.78
2022-12-04T23:16:20.789Z,101295.69
2022-12-04T23:19:25.457Z,101284.47
2022-12-04T23:22:28.548Z,101279.28
2022-12-04T23:25:31.346Z,101279.28
2022-12-04T23:28:34.170Z,101282.56
2022-12-04T23:31:39.192Z,101286.03
2022-12-04T23:34:41.839Z,101288.72
2022-12-04T23:37:46.171Z,101286.25
2022-12-04T23:40:48.850Z,101285.34
2022-12-04T23:43:53.448Z,101293.91
2022-12-04T23:46:56.389Z,101296.59
2022-12-04T23:49:59.818Z,101294.69
2022-12-04T23:53:03.207Z,101299.06
2022-12-04T23:56:32.874Z,101297.38
2022-12-04T23:59:36.279Z,101301.75
